sensor_id;sensor_type;location;lat;lon;timestamp;P1;durP1;ratioP1;P2;durP2;ratioP2
75358;SDS011;64046;51.978;5.934;2024-01-11T00:01:54;27.88;;;11.95;;
75358;SDS011;64046;51.978;5.934;2024-01-11T00:04:26;27.75;;;12.05;;
75358;SDS011;64046;51.978;5.934;2024-01-11T00:06:59;30.38;;;11.68;;
75358;SDS011;64046;51.978;5.934;2024-01-11T00:09:30;21.50;;;11.25;;
75358;SDS011;64046;51.978;5.934;2024-01-11T00:12:01;25.42;;;12.02;;
75358;SDS011;64046;51.978;5.934;2024-01-11T00:14:30;24.42;;;11.93;;
75358;SDS011;64046;51.978;5.934;2024-01-11T00:17:02;21.42;;;10.57;;
75358;SDS011;64046;51.978;5.934;2024-01-11T00:19:36;20.77;;;10.02;;
75358;SDS011;64046;51.978;5.934;2024-01-11T00:22:06;24.70;;;10.55;;
75358;SDS011;64046;51.978;5.934;2024-01-11T00:24:38;27.70;;;11.07;;
75358;SDS011;64046;51.978;5.934;2024-01-11T00:27:10;25.23;;;11.18;;
75358;SDS011;64046;51.978;5.934;2024-01-11T00:29:44;20.83;;;10.35;;
75358;SDS011;64046;51.978;5.934;2024-01-11T00:32:13;22.35;;;10.82;;
75358;SDS011;64046;51.978;5.934;2024-01-11T00:34:47;22.58;;;11.07;;
75358;SDS011;64046;51.978;5.934;2024-01-11T00:37:21;23.30;;;11.15;;
75358;SDS011;64046;51.978;5.934;2024-01-11T00:39:51;26.10;;;12.02;;
75358;SDS011;64046;51.978;5.934;2024-01-11T00:42:21;21.73;;;11.00;;
75358;SDS011;64046;51.978;5.934;2024-01-11T00:44:50;19.73;;;10.85;;
75358;SDS011;64046;51.978;5.934;2024-01-11T00:47:24;23.52;;;9.82;;
75358;SDS011;64046;51.978;5.934;2024-01-11T00:49:56;16.67;;;9.63;;
75358;SDS011;64046;51.978;5.934;2024-01-11T00:52:29;18.45;;;9.32;;
75358;SDS011;64046;51.978;5.934;2024-01-11T00:54:58;18.13;;;9.30;;
75358;SDS011;64046;51.978;5.934;2024-01-11T00:57:27;22.92;;;9.05;;
75358;SDS011;64046;51.978;5.934;2024-01-11T01:00:01;22.52;;;10.38;;
75358;SDS011;64046;51.978;5.934;2024-01-11T01:02:30;18.23;;;9.63;;
75358;SDS011;64046;51.978;5.934;2024-01-11T01:05:05;19.88;;;10.57;;
75358;SDS011;64046;51.978;5.934;2024-01-11T01:07:37;20.95;;;10.23;;
75358;SDS011;64046;51.978;5.934;2024-01-11T01:10:07;18.83;;;9.52;;
75358;SDS011;64046;51.978;5.934;2024-01-11T01:12:45;28.13;;;10.57;;
75358;SDS011;64046;51.978;5.934;2024-01-11T01:15:22;18.55;;;10.02;;
75358;SDS011;64046;51.978;5.934;2024-01-11T01:17:54;19.63;;;9.57;;
75358;SDS011;64046;51.978;5.934;2024-01-11T01:20:27;19.88;;;9.20;;
75358;SDS011;64046;51.978;5.934;2024-01-11T01:22:56;19.55;;;9.60;;
75358;SDS011;64046;51.978;5.934;2024-01-11T01:25:29;23.92;;;11.18;;
75358;SDS011;64046;51.978;5.934;2024-01-11T01:27:58;22.05;;;10.07;;
75358;SDS011;64046;51.978;5.934;2024-01-11T01:30:27;19.63;;;9.82;;
75358;SDS011;64046;51.978;5.934;2024-01-11T01:33:17;22.15;;;10.20;;
75358;SDS011;64046;51.978;5.934;2024-01-11T01:35:49;19.95;;;9.82;;
75358;SDS011;64046;51.978;5.934;2024-01-11T01:38:18;18.85;;;9.93;;
75358;SDS011;64046;51.978;5.934;2024-01-11T01:40:53;19.80;;;9.57;;
75358;SDS011;64046;51.978;5.934;2024-01-11T01:43:24;20.98;;;9.25;;
75358;SDS011;64046;51.978;5.934;2024-01-11T01:45:56;23.30;;;10.55;;
75358;SDS011;64046;51.978;5.934;2024-01-11T01:48:26;23.75;;;11.70;;
75358;SDS011;64046;51.978;5.934;2024-01-11T01:51:00;25.10;;;11.57;;
75358;SDS011;64046;51.978;5.934;2024-01-11T01:53:32;22.65;;;10.02;;
75358;SDS011;64046;51.978;5.934;2024-01-11T01:56:04;20.95;;;9.75;;
75358;SDS011;64046;51.978;5.934;2024-01-11T01:58:36;22.50;;;10.27;;
75358;SDS011;64046;51.978;5.934;2024-01-11T02:01:09;25.92;;;11.43;;
75358;SDS011;64046;51.978;5.934;2024-01-11T02:03:38;21.00;;;10.60;;
75358;SDS011;64046;51.978;5.934;2024-01-11T02:06:12;23.45;;;10.82;;
75358;SDS011;64046;51.978;5.934;2024-01-11T02:08:46;21.08;;;9.82;;
75358;SDS011;64046;51.978;5.934;2024-01-11T02:11:19;18.90;;;10.10;;
75358;SDS011;64046;51.978;5.934;2024-01-11T02:13:55;18.73;;;9.38;;
75358;SDS011;64046;51.978;5.934;2024-01-11T02:16:27;20.02;;;10.18;;
75358;SDS011;64046;51.978;5.934;2024-01-11T02:18:57;21.58;;;10.80;;
75358;SDS011;64046;51.978;5.934;2024-01-11T02:21:30;18.98;;;10.52;;
75358;SDS011;64046;51.978;5.934;2024-01-11T02:24:06;17.73;;;8.73;;
75358;SDS011;64046;51.978;5.934;2024-01-11T02:26:52;25.85;;;11.93;;
75358;SDS011;64046;51.978;5.934;2024-01-11T02:29:29;19.23;;;9.77;;
75358;SDS011;64046;51.978;5.934;2024-01-11T02:32:04;26.25;;;10.63;;
75358;SDS011;64046;51.978;5.934;2024-01-11T02:34:38;16.88;;;9.32;;
75358;SDS011;64046;51.978;5.934;2024-01-11T02:37:10;20.42;;;9.98;;
75358;SDS011;64046;51.978;5.934;2024-01-11T02:39:45;20.50;;;9.88;;
75358;SDS011;64046;51.978;5.934;2024-01-11T02:42:15;19.75;;;10.30;;
75358;SDS011;64046;51.978;5.934;2024-01-11T02:44:47;22.85;;;10.02;;
75358;SDS011;64046;51.978;5.934;2024-01-11T02:47:17;20.48;;;9.30;;
75358;SDS011;64046;51.978;5.934;2024-01-11T02:49:46;16.73;;;8.95;;
75358;SDS011;64046;51.978;5.934;2024-01-11T02:52:17;20.55;;;10.02;;
75358;SDS011;64046;51.978;5.934;2024-01-11T02:54:52;19.48;;;9.75;;
75358;SDS011;64046;51.978;5.934;2024-01-11T02:57:23;23.05;;;10.55;;
75358;SDS011;64046;51.978;5.934;2024-01-11T02:59:53;23.55;;;10.98;;
75358;SDS011;64046;51.978;5.934;2024-01-11T03:02:24;19.40;;;9.48;;
75358;SDS011;64046;51.978;5.934;2024-01-11T03:04:54;17.85;;;10.27;;
75358;SDS011;64046;51.978;5.934;2024-01-11T03:07:27;22.45;;;10.50;;
75358;SDS011;64046;51.978;5.934;2024-01-11T03:10:02;18.45;;;9.40;;
75358;SDS011;64046;51.978;5.934;2024-01-11T03:12:37;21.35;;;10.85;;
75358;SDS011;64046;51.978;5.934;2024-01-11T03:15:09;24.35;;;11.32;;
75358;SDS011;64046;51.978;5.934;2024-01-11T03:17:39;21.77;;;10.45;;
75358;SDS011;64046;51.978;5.934;2024-01-11T03:20:10;20.08;;;9.80;;
75358;SDS011;64046;51.978;5.934;2024-01-11T03:22:44;21.27;;;10.27;;
75358;SDS011;64046;51.978;5.934;2024-01-11T03:25:24;22.23;;;9.63;;
75358;SDS011;64046;51.978;5.934;2024-01-11T03:27:56;21.58;;;11.30;;
75358;SDS011;64046;51.978;5.934;2024-01-11T03:30:29;22.17;;;9.25;;
75358;SDS011;64046;51.978;5.934;2024-01-11T03:33:01;16.45;;;8.70;;
75358;SDS011;64046;51.978;5.934;2024-01-11T03:35:33;26.48;;;11.25;;
75358;SDS011;64046;51.978;5.934;2024-01-11T03:38:04;22.30;;;11.60;;
75358;SDS011;64046;51.978;5.934;2024-01-11T03:40:36;18.90;;;10.07;;
75358;SDS011;64046;51.978;5.934;2024-01-11T03:43:08;21.30;;;10.40;;
75358;SDS011;64046;51.978;5.934;2024-01-11T03:45:41;20.65;;;10.05;;
75358;SDS011;64046;51.978;5.934;2024-01-11T03:48:11;23.73;;;10.93;;
75358;SDS011;64046;51.978;5.934;2024-01-11T03:50:43;23.63;;;10.55;;
75358;SDS011;64046;51.978;5.934;2024-01-11T03:53:14;23.05;;;10.02;;
75358;SDS011;64046;51.978;5.934;2024-01-11T03:55:46;19.83;;;9.82;;
75358;SDS011;64046;51.978;5.934;2024-01-11T03:58:18;20.38;;;10.00;;
75358;SDS011;64046;51.978;5.934;2024-01-11T04:00:48;19.63;;;10.30;;
75358;SDS011;64046;51.978;5.934;2024-01-11T04:03:19;19.48;;;9.02;;
75358;SDS011;64046;51.978;5.934;2024-01-11T04:05:51;22.13;;;10.93;;
75358;SDS011;64046;51.978;5.934;2024-01-11T04:08:22;22.58;;;11.68;;
75358;SDS011;64046;51.978;5.934;2024-01-11T04:10:58;19.85;;;10.85;;
75358;SDS011;64046;51.978;5.934;2024-01-11T04:13:31;20.67;;;10.35;;
75358;SDS011;64046;51.978;5.934;2024-01-11T04:16:03;20.83;;;10.05;;
75358;SDS011;64046;51.978;5.934;2024-01-11T04:18:37;21.77;;;10.13;;
75358;SDS011;64046;51.978;5.934;2024-01-11T04:21:19;20.45;;;10.65;;
75358;SDS011;64046;51.978;5.934;2024-01-11T04:23:50;23.77;;;10.98;;
75358;SDS011;64046;51.978;5.934;2024-01-11T04:26:31;24.73;;;11.43;;
75358;SDS011;64046;51.978;5.934;2024-01-11T04:29:01;25.10;;;10.90;;
75358;SDS011;64046;51.978;5.934;2024-01-11T04:31:32;25.20;;;11.65;;
75358;SDS011;64046;51.978;5.934;2024-01-11T04:34:02;20.95;;;11.35;;
75358;SDS011;64046;51.978;5.934;2024-01-11T04:36:31;28.00;;;11.02;;
75358;SDS011;64046;51.978;5.934;2024-01-11T04:39:03;22.25;;;12.02;;
75358;SDS011;64046;51.978;5.934;2024-01-11T04:41:37;20.05;;;10.15;;
75358;SDS011;64046;51.978;5.934;2024-01-11T04:44:08;25.52;;;11.60;;
75358;SDS011;64046;51.978;5.934;2024-01-11T04:46:43;26.25;;;11.35;;
75358;SDS011;64046;51.978;5.934;2024-01-11T04:49:13;26.38;;;13.35;;
75358;SDS011;64046;51.978;5.934;2024-01-11T04:51:43;22.10;;;11.20;;
75358;SDS011;64046;51.978;5.934;2024-01-11T04:54:14;22.13;;;11.32;;
75358;SDS011;64046;51.978;5.934;2024-01-11T04:56:50;21.73;;;11.15;;
75358;SDS011;64046;51.978;5.934;2024-01-11T04:59:21;21.92;;;10.68;;
75358;SDS011;64046;51.978;5.934;2024-01-11T05:01:59;21.25;;;11.48;;
75358;SDS011;64046;51.978;5.934;2024-01-11T05:04:32;22.88;;;11.23;;
75358;SDS011;64046;51.978;5.934;2024-01-11T05:07:02;22.63;;;11.65;;
75358;SDS011;64046;51.978;5.934;2024-01-11T05:09:33;21.90;;;10.95;;
75358;SDS011;64046;51.978;5.934;2024-01-11T05:12:05;27.08;;;12.40;;
75358;SDS011;64046;51.978;5.934;2024-01-11T05:14:35;21.02;;;10.77;;
75358;SDS011;64046;51.978;5.934;2024-01-11T05:17:05;23.27;;;11.85;;
75358;SDS011;64046;51.978;5.934;2024-01-11T05:19:40;21.52;;;11.85;;
75358;SDS011;64046;51.978;5.934;2024-01-11T05:22:09;21.02;;;11.25;;
75358;SDS011;64046;51.978;5.934;2024-01-11T05:24:40;27.85;;;12.25;;
75358;SDS011;64046;51.978;5.934;2024-01-11T05:27:15;26.63;;;13.30;;
75358;SDS011;64046;51.978;5.934;2024-01-11T05:29:45;25.15;;;11.90;;
75358;SDS011;64046;51.978;5.934;2024-01-11T05:32:16;27.10;;;13.15;;
75358;SDS011;64046;51.978;5.934;2024-01-11T05:34:48;25.80;;;11.93;;
75358;SDS011;64046;51.978;5.934;2024-01-11T05:37:17;25.30;;;12.35;;
75358;SDS011;64046;51.978;5.934;2024-01-11T05:39:47;25.80;;;12.18;;
75358;SDS011;64046;51.978;5.934;2024-01-11T05:42:20;27.40;;;13.13;;
75358;SDS011;64046;51.978;5.934;2024-01-11T05:44:51;23.48;;;11.70;;
75358;SDS011;64046;51.978;5.934;2024-01-11T05:47:20;28.38;;;13.15;;
75358;SDS011;64046;51.978;5.934;2024-01-11T05:49:50;23.08;;;11.00;;
75358;SDS011;64046;51.978;5.934;2024-01-11T05:52:20;23.02;;;12.40;;
75358;SDS011;64046;51.978;5.934;2024-01-11T05:54:52;25.00;;;12.63;;
75358;SDS011;64046;51.978;5.934;2024-01-11T05:57:26;26.85;;;13.52;;
75358;SDS011;64046;51.978;5.934;2024-01-11T05:59:56;27.70;;;13.65;;
75358;SDS011;64046;51.978;5.934;2024-01-11T06:02:32;30.65;;;13.85;;
75358;SDS011;64046;51.978;5.934;2024-01-11T06:05:03;26.90;;;12.95;;
75358;SDS011;64046;51.978;5.934;2024-01-11T06:07:39;29.88;;;12.75;;
75358;SDS011;64046;51.978;5.934;2024-01-11T06:10:14;21.80;;;11.32;;
75358;SDS011;64046;51.978;5.934;2024-01-11T06:12:51;30.05;;;14.48;;
75358;SDS011;64046;51.978;5.934;2024-01-11T06:15:22;25.98;;;12.52;;
75358;SDS011;64046;51.978;5.934;2024-01-11T06:17:53;25.67;;;12.55;;
75358;SDS011;64046;51.978;5.934;2024-01-11T06:20:24;30.42;;;14.77;;
75358;SDS011;64046;51.978;5.934;2024-01-11T06:22:53;28.38;;;13.95;;
75358;SDS011;64046;51.978;5.934;2024-01-11T06:25:22;26.08;;;13.70;;
75358;SDS011;64046;51.978;5.934;2024-01-11T06:27:57;26.75;;;13.82;;
75358;SDS011;64046;51.978;5.934;2024-01-11T06:30:30;30.88;;;13.52;;
75358;SDS011;64046;51.978;5.934;2024-01-11T06:33:09;25.75;;;12.35;;
75358;SDS011;64046;51.978;5.934;2024-01-11T06:35:39;30.73;;;14.35;;
75358;SDS011;64046;51.978;5.934;2024-01-11T06:38:09;25.77;;;13.32;;
75358;SDS011;64046;51.978;5.934;2024-01-11T06:40:45;27.70;;;13.65;;
75358;SDS011;64046;51.978;5.934;2024-01-11T06:43:19;36.50;;;17.85;;
75358;SDS011;64046;51.978;5.934;2024-01-11T06:45:50;27.58;;;14.70;;
75358;SDS011;64046;51.978;5.934;2024-01-11T06:48:21;31.10;;;15.73;;
75358;SDS011;64046;51.978;5.934;2024-01-11T06:50:52;27.75;;;14.25;;
75358;SDS011;64046;51.978;5.934;2024-01-11T06:53:23;34.45;;;15.82;;
75358;SDS011;64046;51.978;5.934;2024-01-11T06:55:53;28.17;;;14.52;;
75358;SDS011;64046;51.978;5.934;2024-01-11T06:58:28;27.20;;;14.65;;
75358;SDS011;64046;51.978;5.934;2024-01-11T07:00:58;26.90;;;14.45;;
75358;SDS011;64046;51.978;5.934;2024-01-11T07:03:32;28.55;;;15.35;;
75358;SDS011;64046;51.978;5.934;2024-01-11T07:06:12;32.65;;;16.23;;
75358;SDS011;64046;51.978;5.934;2024-01-11T07:08:41;26.40;;;14.10;;
75358;SDS011;64046;51.978;5.934;2024-01-11T07:11:13;28.33;;;14.15;;
75358;SDS011;64046;51.978;5.934;2024-01-11T07:13:50;31.20;;;15.48;;
75358;SDS011;64046;51.978;5.934;2024-01-11T07:16:22;28.90;;;14.48;;
75358;SDS011;64046;51.978;5.934;2024-01-11T07:18:55;31.40;;;15.15;;
75358;SDS011;64046;51.978;5.934;2024-01-11T07:21:25;33.95;;;15.65;;
75358;SDS011;64046;51.978;5.934;2024-01-11T07:23:58;30.52;;;15.23;;
75358;SDS011;64046;51.978;5.934;2024-01-11T07:26:29;24.05;;;13.02;;
75358;SDS011;64046;51.978;5.934;2024-01-11T07:29:02;32.28;;;14.80;;
75358;SDS011;64046;51.978;5.934;2024-01-11T07:31:33;32.80;;;16.08;;
75358;SDS011;64046;51.978;5.934;2024-01-11T07:34:03;32.53;;;15.40;;
75358;SDS011;64046;51.978;5.934;2024-01-11T07:36:33;30.30;;;14.82;;
75358;SDS011;64046;51.978;5.934;2024-01-11T07:39:02;33.88;;;16.35;;
75358;SDS011;64046;51.978;5.934;2024-01-11T07:41:31;31.73;;;15.13;;
75358;SDS011;64046;51.978;5.934;2024-01-11T07:44:09;32.85;;;15.57;;
75358;SDS011;64046;51.978;5.934;2024-01-11T07:46:38;32.13;;;16.42;;
75358;SDS011;64046;51.978;5.934;2024-01-11T07:49:08;27.90;;;14.95;;
75358;SDS011;64046;51.978;5.934;2024-01-11T07:51:40;36.80;;;17.75;;
75358;SDS011;64046;51.978;5.934;2024-01-11T07:54:10;27.90;;;15.07;;
75358;SDS011;64046;51.978;5.934;2024-01-11T07:56:42;33.75;;;17.45;;
75358;SDS011;64046;51.978;5.934;2024-01-11T07:59:15;36.63;;;16.95;;
75358;SDS011;64046;51.978;5.934;2024-01-11T08:01:44;36.45;;;16.83;;
75358;SDS011;64046;51.978;5.934;2024-01-11T08:04:17;34.58;;;17.75;;
75358;SDS011;64046;51.978;5.934;2024-01-11T08:06:50;31.85;;;15.57;;
75358;SDS011;64046;51.978;5.934;2024-01-11T08:09:20;33.17;;;16.95;;
75358;SDS011;64046;51.978;5.934;2024-01-11T08:11:51;38.67;;;17.92;;
75358;SDS011;64046;51.978;5.934;2024-01-11T08:14:23;32.38;;;16.77;;
75358;SDS011;64046;51.978;5.934;2024-01-11T08:16:53;39.65;;;18.15;;
75358;SDS011;64046;51.978;5.934;2024-01-11T08:19:24;33.67;;;16.60;;
75358;SDS011;64046;51.978;5.934;2024-01-11T08:21:54;31.15;;;15.85;;
75358;SDS011;64046;51.978;5.934;2024-01-11T08:24:23;34.03;;;16.73;;
75358;SDS011;64046;51.978;5.934;2024-01-11T08:26:59;37.53;;;18.15;;
75358;SDS011;64046;51.978;5.934;2024-01-11T08:29:34;34.40;;;16.42;;
75358;SDS011;64046;51.978;5.934;2024-01-11T08:32:06;31.55;;;16.00;;
75358;SDS011;64046;51.978;5.934;2024-01-11T08:34:37;40.30;;;17.80;;
75358;SDS011;64046;51.978;5.934;2024-01-11T08:37:07;30.55;;;16.00;;
75358;SDS011;64046;51.978;5.934;2024-01-11T08:39:37;32.28;;;15.32;;
75358;SDS011;64046;51.978;5.934;2024-01-11T08:42:12;36.13;;;18.23;;
75358;SDS011;64046;51.978;5.934;2024-01-11T08:44:44;37.25;;;19.27;;
75358;SDS011;64046;51.978;5.934;2024-01-11T08:47:18;34.75;;;16.52;;
75358;SDS011;64046;51.978;5.934;2024-01-11T08:49:48;32.28;;;17.55;;
75358;SDS011;64046;51.978;5.934;2024-01-11T08:52:17;31.10;;;15.32;;
75358;SDS011;64046;51.978;5.934;2024-01-11T08:54:48;39.45;;;18.48;;
75358;SDS011;64046;51.978;5.934;2024-01-11T08:57:19;34.28;;;17.33;;
75358;SDS011;64046;51.978;5.934;2024-01-11T08:59:55;38.60;;;18.08;;
75358;SDS011;64046;51.978;5.934;2024-01-11T09:02:26;40.88;;;19.65;;
75358;SDS011;64046;51.978;5.934;2024-01-11T09:04:56;36.13;;;18.20;;
75358;SDS011;64046;51.978;5.934;2024-01-11T09:07:33;35.67;;;17.45;;
75358;SDS011;64046;51.978;5.934;2024-01-11T09:10:06;36.92;;;18.35;;
75358;SDS011;64046;51.978;5.934;2024-01-11T09:12:42;37.00;;;19.10;;
75358;SDS011;64046;51.978;5.934;2024-01-11T09:15:15;43.42;;;21.60;;
75358;SDS011;64046;51.978;5.934;2024-01-11T09:17:44;38.47;;;18.80;;
75358;SDS011;64046;51.978;5.934;2024-01-11T09:20:15;41.17;;;18.42;;
75358;SDS011;64046;51.978;5.934;2024-01-11T09:22:45;36.87;;;19.17;;
75358;SDS011;64046;51.978;5.934;2024-01-11T09:25:17;39.40;;;19.70;;
75358;SDS011;64046;51.978;5.934;2024-01-11T09:27:56;40.08;;;19.33;;
75358;SDS011;64046;51.978;5.934;2024-01-11T09:30:31;36.85;;;18.73;;
75358;SDS011;64046;51.978;5.934;2024-01-11T09:33:02;34.10;;;18.55;;
75358;SDS011;64046;51.978;5.934;2024-01-11T09:35:35;38.47;;;19.80;;
75358;SDS011;64046;51.978;5.934;2024-01-11T09:38:07;41.38;;;20.58;;
75358;SDS011;64046;51.978;5.934;2024-01-11T09:40:37;40.75;;;20.60;;
75358;SDS011;64046;51.978;5.934;2024-01-11T09:43:10;38.90;;;19.23;;
75358;SDS011;64046;51.978;5.934;2024-01-11T09:45:43;38.65;;;18.33;;
75358;SDS011;64046;51.978;5.934;2024-01-11T09:48:12;39.60;;;20.50;;
75358;SDS011;64046;51.978;5.934;2024-01-11T09:50:43;39.25;;;19.63;;
75358;SDS011;64046;51.978;5.934;2024-01-11T09:53:21;41.25;;;19.63;;
75358;SDS011;64046;51.978;5.934;2024-01-11T09:55:54;42.40;;;19.90;;
75358;SDS011;64046;51.978;5.934;2024-01-11T09:58:26;37.78;;;19.88;;
75358;SDS011;64046;51.978;5.934;2024-01-11T10:01:00;37.85;;;18.88;;
75358;SDS011;64046;51.978;5.934;2024-01-11T10:03:32;37.00;;;18.88;;
75358;SDS011;64046;51.978;5.934;2024-01-11T10:06:01;38.03;;;18.48;;
75358;SDS011;64046;51.978;5.934;2024-01-11T10:08:32;38.05;;;19.30;;
75358;SDS011;64046;51.978;5.934;2024-01-11T10:11:05;39.10;;;18.35;;
75358;SDS011;64046;51.978;5.934;2024-01-11T10:13:35;30.45;;;16.65;;
75358;SDS011;64046;51.978;5.934;2024-01-11T10:16:08;32.25;;;16.65;;
75358;SDS011;64046;51.978;5.934;2024-01-11T10:18:39;36.50;;;20.87;;
75358;SDS011;64046;51.978;5.934;2024-01-11T10:21:10;35.65;;;18.45;;
75358;SDS011;64046;51.978;5.934;2024-01-11T10:23:42;36.42;;;20.60;;
75358;SDS011;64046;51.978;5.934;2024-01-11T10:26:19;40.03;;;20.65;;
75358;SDS011;64046;51.978;5.934;2024-01-11T10:28:48;39.83;;;20.58;;
75358;SDS011;64046;51.978;5.934;2024-01-11T10:31:23;37.92;;;19.52;;
75358;SDS011;64046;51.978;5.934;2024-01-11T10:33:55;39.63;;;19.70;;
75358;SDS011;64046;51.978;5.934;2024-01-11T10:36:25;36.05;;;17.65;;
75358;SDS011;64046;51.978;5.934;2024-01-11T10:39:02;34.35;;;17.25;;
75358;SDS011;64046;51.978;5.934;2024-01-11T10:41:36;37.17;;;18.88;;
75358;SDS011;64046;51.978;5.934;2024-01-11T10:44:14;28.77;;;15.05;;
75358;SDS011;64046;51.978;5.934;2024-01-11T10:46:54;32.83;;;15.63;;
75358;SDS011;64046;51.978;5.934;2024-01-11T10:49:25;26.98;;;14.02;;
75358;SDS011;64046;51.978;5.934;2024-01-11T10:51:59;31.60;;;16.85;;
75358;SDS011;64046;51.978;5.934;2024-01-11T10:54:30;34.08;;;16.05;;
75358;SDS011;64046;51.978;5.934;2024-01-11T10:57:03;31.27;;;14.30;;
75358;SDS011;64046;51.978;5.934;2024-01-11T10:59:34;32.60;;;15.13;;
75358;SDS011;64046;51.978;5.934;2024-01-11T11:02:10;24.50;;;11.40;;
75358;SDS011;64046;51.978;5.934;2024-01-11T11:04:42;26.67;;;11.30;;
75358;SDS011;64046;51.978;5.934;2024-01-11T11:07:13;26.63;;;11.98;;
75358;SDS011;64046;51.978;5.934;2024-01-11T11:09:47;27.40;;;11.25;;
75358;SDS011;64046;51.978;5.934;2024-01-11T11:12:22;22.02;;;9.63;;
75358;SDS011;64046;51.978;5.934;2024-01-11T11:14:52;19.88;;;9.73;;
75358;SDS011;64046;51.978;5.934;2024-01-11T11:17:27;22.23;;;10.60;;
75358;SDS011;64046;51.978;5.934;2024-01-11T11:20:02;24.17;;;12.05;;
75358;SDS011;64046;51.978;5.934;2024-01-11T11:22:34;27.15;;;12.85;;
75358;SDS011;64046;51.978;5.934;2024-01-11T11:25:03;24.55;;;11.68;;
75358;SDS011;64046;51.978;5.934;2024-01-11T11:27:37;21.88;;;9.77;;
75358;SDS011;64046;51.978;5.934;2024-01-11T11:30:12;26.27;;;10.18;;
75358;SDS011;64046;51.978;5.934;2024-01-11T11:32:51;23.98;;;10.65;;
75358;SDS011;64046;51.978;5.934;2024-01-11T11:35:22;26.35;;;11.65;;
75358;SDS011;64046;51.978;5.934;2024-01-11T11:37:53;31.00;;;12.10;;
75358;SDS011;64046;51.978;5.934;2024-01-11T11:40:32;23.42;;;10.27;;
75358;SDS011;64046;51.978;5.934;2024-01-11T11:43:05;30.77;;;12.70;;
75358;SDS011;64046;51.978;5.934;2024-01-11T11:45:39;23.17;;;9.90;;
75358;SDS011;64046;51.978;5.934;2024-01-11T11:51:14;32.65;;;13.38;;
75358;SDS011;64046;51.978;5.934;2024-01-11T11:53:45;31.38;;;14.38;;
75358;SDS011;64046;51.978;5.934;2024-01-11T11:56:18;29.25;;;12.60;;
75358;SDS011;64046;51.978;5.934;2024-01-11T11:58:53;27.20;;;12.35;;
75358;SDS011;64046;51.978;5.934;2024-01-11T12:01:24;27.98;;;12.57;;
75358;SDS011;64046;51.978;5.934;2024-01-11T12:03:56;27.35;;;12.18;;
75358;SDS011;64046;51.978;5.934;2024-01-11T12:06:30;28.55;;;11.45;;
75358;SDS011;64046;51.978;5.934;2024-01-11T12:09:00;27.15;;;11.77;;
75358;SDS011;64046;51.978;5.934;2024-01-11T12:11:35;23.33;;;11.63;;
75358;SDS011;64046;51.978;5.934;2024-01-11T12:14:09;27.83;;;12.20;;
75358;SDS011;64046;51.978;5.934;2024-01-11T12:16:42;30.73;;;12.57;;
75358;SDS011;64046;51.978;5.934;2024-01-11T12:19:12;24.75;;;12.27;;
75358;SDS011;64046;51.978;5.934;2024-01-11T12:21:44;29.02;;;12.43;;
75358;SDS011;64046;51.978;5.934;2024-01-11T12:24:14;26.00;;;11.02;;
75358;SDS011;64046;51.978;5.934;2024-01-11T12:26:46;26.35;;;10.70;;
75358;SDS011;64046;51.978;5.934;2024-01-11T12:29:18;26.40;;;11.48;;
75358;SDS011;64046;51.978;5.934;2024-01-11T12:31:47;24.23;;;10.88;;
75358;SDS011;64046;51.978;5.934;2024-01-11T12:34:22;27.90;;;11.38;;
75358;SDS011;64046;51.978;5.934;2024-01-11T12:36:55;29.70;;;12.50;;
75358;SDS011;64046;51.978;5.934;2024-01-11T12:39:26;28.02;;;11.77;;
75358;SDS011;64046;51.978;5.934;2024-01-11T12:41:57;24.83;;;11.35;;
75358;SDS011;64046;51.978;5.934;2024-01-11T12:44:26;23.38;;;10.95;;
75358;SDS011;64046;51.978;5.934;2024-01-11T12:46:56;23.85;;;10.73;;
75358;SDS011;64046;51.978;5.934;2024-01-11T12:49:28;24.35;;;11.82;;
75358;SDS011;64046;51.978;5.934;2024-01-11T12:52:01;22.65;;;10.65;;
75358;SDS011;64046;51.978;5.934;2024-01-11T12:54:32;21.38;;;10.38;;
75358;SDS011;64046;51.978;5.934;2024-01-11T12:57:05;23.63;;;11.27;;
75358;SDS011;64046;51.978;5.934;2024-01-11T12:59:35;26.27;;;10.57;;
75358;SDS011;64046;51.978;5.934;2024-01-11T13:02:05;24.02;;;10.98;;
75358;SDS011;64046;51.978;5.934;2024-01-11T13:04:39;35.17;;;16.58;;
75358;SDS011;64046;51.978;5.934;2024-01-11T13:07:12;23.33;;;10.73;;
75358;SDS011;64046;51.978;5.934;2024-01-11T13:09:42;17.85;;;8.20;;
75358;SDS011;64046;51.978;5.934;2024-01-11T13:12:13;23.48;;;11.73;;
75358;SDS011;64046;51.978;5.934;2024-01-11T13:14:46;23.13;;;10.77;;
75358;SDS011;64046;51.978;5.934;2024-01-11T13:17:20;21.95;;;9.27;;
75358;SDS011;64046;51.978;5.934;2024-01-11T13:19:53;25.83;;;12.05;;
75358;SDS011;64046;51.978;5.934;2024-01-11T13:22:27;18.48;;;10.00;;
75358;SDS011;64046;51.978;5.934;2024-01-11T13:25:00;23.17;;;9.70;;
75358;SDS011;64046;51.978;5.934;2024-01-11T13:27:31;20.88;;;10.20;;
75358;SDS011;64046;51.978;5.934;2024-01-11T13:30:04;22.52;;;10.35;;
75358;SDS011;64046;51.978;5.934;2024-01-11T13:32:38;20.10;;;8.85;;
75358;SDS011;64046;51.978;5.934;2024-01-11T13:35:07;24.67;;;9.82;;
75358;SDS011;64046;51.978;5.934;2024-01-11T13:37:37;20.58;;;9.95;;
75358;SDS011;64046;51.978;5.934;2024-01-11T13:40:15;23.90;;;10.70;;
75358;SDS011;64046;51.978;5.934;2024-01-11T13:42:45;20.60;;;9.43;;
75358;SDS011;64046;51.978;5.934;2024-01-11T13:45:14;18.95;;;9.65;;
75358;SDS011;64046;51.978;5.934;2024-01-11T13:47:45;24.10;;;10.88;;
75358;SDS011;64046;51.978;5.934;2024-01-11T13:50:15;24.35;;;10.50;;
75358;SDS011;64046;51.978;5.934;2024-01-11T13:52:49;21.73;;;9.65;;
75358;SDS011;64046;51.978;5.934;2024-01-11T13:55:19;29.75;;;13.05;;
75358;SDS011;64046;51.978;5.934;2024-01-11T13:57:49;24.27;;;11.90;;
75358;SDS011;64046;51.978;5.934;2024-01-11T14:00:20;23.80;;;10.48;;
75358;SDS011;64046;51.978;5.934;2024-01-11T14:02:50;22.13;;;10.63;;
75358;SDS011;64046;51.978;5.934;2024-01-11T14:05:19;24.90;;;11.27;;
75358;SDS011;64046;51.978;5.934;2024-01-11T14:07:52;21.90;;;11.02;;
75358;SDS011;64046;51.978;5.934;2024-01-11T14:10:25;18.30;;;9.32;;
75358;SDS011;64046;51.978;5.934;2024-01-11T14:12:58;24.65;;;11.45;;
75358;SDS011;64046;51.978;5.934;2024-01-11T14:15:30;29.30;;;13.27;;
75358;SDS011;64046;51.978;5.934;2024-01-11T14:18:01;22.48;;;10.18;;
75358;SDS011;64046;51.978;5.934;2024-01-11T14:20:31;23.85;;;10.57;;
75358;SDS011;64046;51.978;5.934;2024-01-11T14:23:05;22.58;;;11.75;;
75358;SDS011;64046;51.978;5.934;2024-01-11T14:25:40;28.27;;;12.52;;
75358;SDS011;64046;51.978;5.934;2024-01-11T14:28:14;26.30;;;12.57;;
75358;SDS011;64046;51.978;5.934;2024-01-11T14:30:43;29.88;;;13.32;;
75358;SDS011;64046;51.978;5.934;2024-01-11T14:33:16;27.85;;;12.98;;
75358;SDS011;64046;51.978;5.934;2024-01-11T14:35:49;27.70;;;12.23;;
75358;SDS011;64046;51.978;5.934;2024-01-11T14:38:22;24.80;;;11.45;;
75358;SDS011;64046;51.978;5.934;2024-01-11T14:40:55;25.33;;;11.25;;
75358;SDS011;64046;51.978;5.934;2024-01-11T14:43:27;23.05;;;10.60;;
75358;SDS011;64046;51.978;5.934;2024-01-11T14:45:56;25.55;;;10.95;;
75358;SDS011;64046;51.978;5.934;2024-01-11T14:48:29;20.08;;;9.90;;
75358;SDS011;64046;51.978;5.934;2024-01-11T14:51:09;26.00;;;12.02;;
75358;SDS011;64046;51.978;5.934;2024-01-11T14:53:45;26.77;;;11.45;;
75358;SDS011;64046;51.978;5.934;2024-01-11T14:56:15;27.45;;;12.15;;